(°C)
12°
13°
15°
16°
17°
18°
19°
(°C)
11°
11°
12°
13°
13°
14°
15°
ЗСЗ
ЗСЗ
ЗСЗ
СЗ
СЗ
СЗ
СЗ
(км/ч)
5-10
7-14
9-18
11-21
13-24
15-26
15-28
(мм)
0
0
0
0
0
0
0
(%)
0
0
0
0
0
0
0

Высота солнцестояния

/ 22.5°
sun-icon
UV 4
04:58
21:34
Полнолуние (190°)
22:39
05:02

METAR для 51.02°С 71.47°В (UACC)

Время Условия Температура/
Точка росы
Ветер Видимость Погода Облачность Давление Изменить Необработанный
VFR 13°C / 8°C 280º variable 260º to 340º 4kt >10km - Clouds and Visibility OK 1013 No Significant change. Runway 22: Clear and dry, , friction coefficient 0.70. UACC 250130Z 28002MPS 260V340 CAVOK 13/08 Q1013 R22/0///70 NOSIG RMK QFE729/0972
VFR 12°C / 8°C 290º variable 270º to 330º 4kt >10km - Clouds and Visibility OK 1013 No Significant change. Runway 22: Clear and dry, , friction coefficient 0.70. UACC 250100Z 29002MPS 270V330 CAVOK 12/08 Q1013 R22/0///70 NOSIG RMK QFE729/0972
VFR 12°C / 7°C 270º variable 230º to 300º 4kt >10km - Clouds and Visibility OK 1013 No Significant change. Runway 22: Clear and dry, , friction coefficient 0.70. UACC 250030Z 27002MPS 230V300 CAVOK 12/07 Q1013 R22/0///70 NOSIG RMK QFE729/0972
VFR 12°C / 7°C 300º 4kt >10km - Clouds and Visibility OK 1013 No Significant change. Runway 04: Clear and dry, , friction coefficient 0.70. UACC 250000Z 30002MPS CAVOK 12/07 Q1013 R04/0///70 NOSIG RMK QFE729/0972
VFR 12°C / 7°C 300º variable 270º to 330º 4kt >10km - Clouds and Visibility OK 1013 No Significant change. Runway 04: Clear and dry, , friction coefficient 0.70. UACC 242330Z 30002MPS 270V330 CAVOK 12/07 Q1013 R04/0///70 NOSIG RMK QFE729/0972
VFR 12°C / 7°C 320º variable 290º to 350º 6kt >10km - Clouds and Visibility OK 1013 No Significant change. Runway 04: Clear and dry, , friction coefficient 0.70. UACC 242300Z 32003MPS 290V350 CAVOK 12/07 Q1013 R04/0///70 NOSIG RMK QFE729/0972
VFR 12°C / 7°C 320º 4kt >10km - Clouds and Visibility OK 1013 No Significant change. Runway 04: Clear and dry, , friction coefficient 0.70. UACC 242230Z 32002MPS CAVOK 12/07 Q1013 R04/0///70 NOSIG RMK QFE729/0972
VFR 12°C / 7°C 310º 4kt >10km - Clouds and Visibility OK 1013 No Significant change. Runway 04: Clear and dry, , friction coefficient 0.70. UACC 242200Z 31002MPS CAVOK 12/07 Q1013 R04/0///70 NOSIG RMK QFE729/0972
VFR 12°C / 7°C 300º 4kt >10km - Clouds and Visibility OK 1014 No Significant change. Runway 04: Clear and dry, , friction coefficient 0.70. UACC 242130Z 30002MPS CAVOK 12/07 Q1014 R04/0///70 NOSIG RMK QFE729/0972
VFR 13°C / 6°C 290º 6kt >10km - Clouds and Visibility OK 1014 No Significant change. Runway 04: Clear and dry, , friction coefficient 0.70. UACC 242100Z 29003MPS CAVOK 13/06 Q1014 R04/0///70 NOSIG RMK QFE729/0972
VFR 14°C / 5°C 280º 2kt >10km - Clouds and Visibility OK 1013 No Significant change. Runway 04: Clear and dry, , friction coefficient 0.70. UACC 242030Z 28001MPS CAVOK 14/05 Q1013 R04/0///70 NOSIG RMK QFE729/0972
VFR 14°C / 5°C variable 2kt >10km - Clouds and Visibility OK 1014 No Significant change. Runway 04: Clear and dry, , friction coefficient 0.70. UACC 242000Z VRB01MPS CAVOK 14/05 Q1014 R04/0///70 NOSIG RMK QFE729/0972
VFR 14°C / 5°C 260º 4kt >10km - Clouds and Visibility OK 1014 No Significant change. Runway 04: Clear and dry, , friction coefficient 0.70. UACC 241930Z 26002MPS CAVOK 14/05 Q1014 R04/0///70 NOSIG RMK QFE729/0972
VFR 14°C / 5°C 320º 6kt >10km - Clouds and Visibility OK 1014 No Significant change. Runway 04: Clear and dry, , friction coefficient 0.70. UACC 241900Z 32003MPS CAVOK 14/05 Q1014 R04/0///70 NOSIG RMK QFE729/0972
VFR 14°C / 5°C 330º 6kt >10km - Few Clouds 3300ft 1014 No Significant change. Runway 04: Clear and dry, , friction coefficient 0.70. UACC 241830Z 33003MPS 9999 FEW033CB 14/05 Q1014 R04/0///70 NOSIG RMK QFE729/0972
VFR 14°C / 5°C 320º 4kt >10km - Few Clouds 3300ft 1014 No Significant change. Runway 04: Clear and dry, , friction coefficient 0.70. UACC 241800Z 32002MPS 9999 FEW033CB 14/05 Q1014 R04/0///70 NOSIG RMK QFE729/0972
VFR 14°C / 5°C 290º 6kt >10km - Few Clouds 3300ft 1014 No Significant change. Runway 04: Clear and dry, , friction coefficient 0.70. UACC 241730Z 29003MPS 9999 FEW033CB 14/05 Q1014 R04/0///70 NOSIG RMK QFE729/0973
VFR 15°C / 3°C 260º 4kt >10km - Scattered Clouds 3300ft 1014 No Significant change. Runway 04: Clear and dry, , friction coefficient 0.70. UACC 241700Z 26002MPS 9999 SCT033CB 15/03 Q1014 R04/0///70 NOSIG RMK QFE729/0973
VFR 15°C / 4°C variable 0kt >10km - Scattered Clouds 3300ft 1014 No Significant change. Runway 04: Clear and dry, , friction coefficient 0.70. UACC 241630Z 00000MPS 9999 SCT033CB 15/04 Q1014 R04/0///70 NOSIG RMK QFE729/0973
VFR 15°C / 4°C 360º variable 320º to 030º 4kt >10km - Scattered Clouds 2300ft 1014 No Significant change. Runway 04: Clear and dry, , friction coefficient 0.70. UACC 241600Z 36002MPS 320V030 9999 SCT023CB 15/04 Q1014 R04/0///70 NOSIG RMK QFE729/0973
VFR 17°C / 3°C 340º variable 250º to 020º 4kt >10km - Scattered Clouds 2300ft 1014 No Significant change. Runway 04: Clear and dry, , friction coefficient 0.70. UACC 241530Z 34002MPS 250V020 9999 SCT023CB 17/03 Q1014 R04/0///70 NOSIG RMK QFE729/0973
VFR 17°C / 3°C 330º variable 290º to 360º 4kt >10km - Scattered Clouds 4600ft 1014 No Significant change. Runway 04: Clear and dry, , friction coefficient 0.70. UACC 241500Z 33002MPS 290V360 9999 SCT046CB 17/03 Q1014 R04/0///70 NOSIG RMK QFE729/0973
VFR 17°C / 2°C 310º variable 270º to 350º 4kt >10km - Scattered Clouds 4600ft 1014 No Significant change. Runway 04: Clear and dry, , friction coefficient 0.70. UACC 241430Z 31002MPS 270V350 9999 SCT046CB 17/02 Q1014 R04/0///70 NOSIG RMK QFE729/0972
VFR 18°C / 2°C 320º variable 300º to 360º 4kt >10km - Clouds and Visibility OK 1014 No Significant change. Runway 04: Clear and dry, , friction coefficient 0.70. UACC 241400Z 32002MPS 300V360 CAVOK 18/02 Q1014 R04/0///70 NOSIG RMK QFE729/0972

VFR

13°C / 8°C

[Больше]
Ветер 280º variable 260º to 340º 4kt
Видимость >10km
Погода -
Облачность Clouds and Visibility OK
Давление 1013
Изменить No Significant change. Runway 22: Clear and dry, , friction coefficient 0.70.
Необработанный UACC 250130Z 28002MPS 260V340 CAVOK 13/08 Q1013 R22/0///70 NOSIG RMK QFE729/0972

VFR

12°C / 8°C

[Больше]
Ветер 290º variable 270º to 330º 4kt
Видимость >10km
Погода -
Облачность Clouds and Visibility OK
Давление 1013
Изменить No Significant change. Runway 22: Clear and dry, , friction coefficient 0.70.
Необработанный UACC 250100Z 29002MPS 270V330 CAVOK 12/08 Q1013 R22/0///70 NOSIG RMK QFE729/0972

VFR

12°C / 7°C

[Больше]
Ветер 270º variable 230º to 300º 4kt
Видимость >10km
Погода -
Облачность Clouds and Visibility OK
Давление 1013
Изменить No Significant change. Runway 22: Clear and dry, , friction coefficient 0.70.
Необработанный UACC 250030Z 27002MPS 230V300 CAVOK 12/07 Q1013 R22/0///70 NOSIG RMK QFE729/0972

VFR

12°C / 7°C

[Больше]
Ветер 300º 4kt
Видимость >10km
Погода -
Облачность Clouds and Visibility OK
Давление 1013
Изменить No Significant change. Runway 04: Clear and dry, , friction coefficient 0.70.
Необработанный UACC 250000Z 30002MPS CAVOK 12/07 Q1013 R04/0///70 NOSIG RMK QFE729/0972

VFR

12°C / 7°C

[Больше]
Ветер 300º variable 270º to 330º 4kt
Видимость >10km
Погода -
Облачность Clouds and Visibility OK
Давление 1013
Изменить No Significant change. Runway 04: Clear and dry, , friction coefficient 0.70.
Необработанный UACC 242330Z 30002MPS 270V330 CAVOK 12/07 Q1013 R04/0///70 NOSIG RMK QFE729/0972

VFR

12°C / 7°C

[Больше]
Ветер 320º variable 290º to 350º 6kt
Видимость >10km
Погода -
Облачность Clouds and Visibility OK
Давление 1013
Изменить No Significant change. Runway 04: Clear and dry, , friction coefficient 0.70.
Необработанный UACC 242300Z 32003MPS 290V350 CAVOK 12/07 Q1013 R04/0///70 NOSIG RMK QFE729/0972

VFR

12°C / 7°C

[Больше]
Ветер 320º 4kt
Видимость >10km
Погода -
Облачность Clouds and Visibility OK
Давление 1013
Изменить No Significant change. Runway 04: Clear and dry, , friction coefficient 0.70.
Необработанный UACC 242230Z 32002MPS CAVOK 12/07 Q1013 R04/0///70 NOSIG RMK QFE729/0972

VFR

12°C / 7°C

[Больше]
Ветер 310º 4kt
Видимость >10km
Погода -
Облачность Clouds and Visibility OK
Давление 1013
Изменить No Significant change. Runway 04: Clear and dry, , friction coefficient 0.70.
Необработанный UACC 242200Z 31002MPS CAVOK 12/07 Q1013 R04/0///70 NOSIG RMK QFE729/0972

VFR

12°C / 7°C

[Больше]
Ветер 300º 4kt
Видимость >10km
Погода -
Облачность Clouds and Visibility OK
Давление 1014
Изменить No Significant change. Runway 04: Clear and dry, , friction coefficient 0.70.
Необработанный UACC 242130Z 30002MPS CAVOK 12/07 Q1014 R04/0///70 NOSIG RMK QFE729/0972

VFR

13°C / 6°C

[Больше]
Ветер 290º 6kt
Видимость >10km
Погода -
Облачность Clouds and Visibility OK
Давление 1014
Изменить No Significant change. Runway 04: Clear and dry, , friction coefficient 0.70.
Необработанный UACC 242100Z 29003MPS CAVOK 13/06 Q1014 R04/0///70 NOSIG RMK QFE729/0972

VFR

14°C / 5°C

[Больше]
Ветер 280º 2kt
Видимость >10km
Погода -
Облачность Clouds and Visibility OK
Давление 1013
Изменить No Significant change. Runway 04: Clear and dry, , friction coefficient 0.70.
Необработанный UACC 242030Z 28001MPS CAVOK 14/05 Q1013 R04/0///70 NOSIG RMK QFE729/0972

VFR

14°C / 5°C

[Больше]
Ветер variable 2kt
Видимость >10km
Погода -
Облачность Clouds and Visibility OK
Давление 1014
Изменить No Significant change. Runway 04: Clear and dry, , friction coefficient 0.70.
Необработанный UACC 242000Z VRB01MPS CAVOK 14/05 Q1014 R04/0///70 NOSIG RMK QFE729/0972

VFR

14°C / 5°C

[Больше]
Ветер 260º 4kt
Видимость >10km
Погода -
Облачность Clouds and Visibility OK
Давление 1014
Изменить No Significant change. Runway 04: Clear and dry, , friction coefficient 0.70.
Необработанный UACC 241930Z 26002MPS CAVOK 14/05 Q1014 R04/0///70 NOSIG RMK QFE729/0972

VFR

14°C / 5°C

[Больше]
Ветер 320º 6kt
Видимость >10km
Погода -
Облачность Clouds and Visibility OK
Давление 1014
Изменить No Significant change. Runway 04: Clear and dry, , friction coefficient 0.70.
Необработанный UACC 241900Z 32003MPS CAVOK 14/05 Q1014 R04/0///70 NOSIG RMK QFE729/0972

VFR

14°C / 5°C

[Больше]
Ветер 330º 6kt
Видимость >10km
Погода -
Облачность Few Clouds 3300ft
Давление 1014
Изменить No Significant change. Runway 04: Clear and dry, , friction coefficient 0.70.
Необработанный UACC 241830Z 33003MPS 9999 FEW033CB 14/05 Q1014 R04/0///70 NOSIG RMK QFE729/0972

VFR

14°C / 5°C

[Больше]
Ветер 320º 4kt
Видимость >10km
Погода -
Облачность Few Clouds 3300ft
Давление 1014
Изменить No Significant change. Runway 04: Clear and dry, , friction coefficient 0.70.
Необработанный UACC 241800Z 32002MPS 9999 FEW033CB 14/05 Q1014 R04/0///70 NOSIG RMK QFE729/0972

VFR

14°C / 5°C

[Больше]
Ветер 290º 6kt
Видимость >10km
Погода -
Облачность Few Clouds 3300ft
Давление 1014
Изменить No Significant change. Runway 04: Clear and dry, , friction coefficient 0.70.
Необработанный UACC 241730Z 29003MPS 9999 FEW033CB 14/05 Q1014 R04/0///70 NOSIG RMK QFE729/0973

VFR

15°C / 3°C

[Больше]
Ветер 260º 4kt
Видимость >10km
Погода -
Облачность Scattered Clouds 3300ft
Давление 1014
Изменить No Significant change. Runway 04: Clear and dry, , friction coefficient 0.70.
Необработанный UACC 241700Z 26002MPS 9999 SCT033CB 15/03 Q1014 R04/0///70 NOSIG RMK QFE729/0973

VFR

15°C / 4°C

[Больше]
Ветер variable 0kt
Видимость >10km
Погода -
Облачность Scattered Clouds 3300ft
Давление 1014
Изменить No Significant change. Runway 04: Clear and dry, , friction coefficient 0.70.
Необработанный UACC 241630Z 00000MPS 9999 SCT033CB 15/04 Q1014 R04/0///70 NOSIG RMK QFE729/0973

VFR

15°C / 4°C

[Больше]
Ветер 360º variable 320º to 030º 4kt
Видимость >10km
Погода -
Облачность Scattered Clouds 2300ft
Давление 1014
Изменить No Significant change. Runway 04: Clear and dry, , friction coefficient 0.70.
Необработанный UACC 241600Z 36002MPS 320V030 9999 SCT023CB 15/04 Q1014 R04/0///70 NOSIG RMK QFE729/0973

VFR

17°C / 3°C

[Больше]
Ветер 340º variable 250º to 020º 4kt
Видимость >10km
Погода -
Облачность Scattered Clouds 2300ft
Давление 1014
Изменить No Significant change. Runway 04: Clear and dry, , friction coefficient 0.70.
Необработанный UACC 241530Z 34002MPS 250V020 9999 SCT023CB 17/03 Q1014 R04/0///70 NOSIG RMK QFE729/0973

VFR

17°C / 3°C

[Больше]
Ветер 330º variable 290º to 360º 4kt
Видимость >10km
Погода -
Облачность Scattered Clouds 4600ft
Давление 1014
Изменить No Significant change. Runway 04: Clear and dry, , friction coefficient 0.70.
Необработанный UACC 241500Z 33002MPS 290V360 9999 SCT046CB 17/03 Q1014 R04/0///70 NOSIG RMK QFE729/0973

VFR

17°C / 2°C

[Больше]
Ветер 310º variable 270º to 350º 4kt
Видимость >10km
Погода -
Облачность Scattered Clouds 4600ft
Давление 1014
Изменить No Significant change. Runway 04: Clear and dry, , friction coefficient 0.70.
Необработанный UACC 241430Z 31002MPS 270V350 9999 SCT046CB 17/02 Q1014 R04/0///70 NOSIG RMK QFE729/0972

VFR

18°C / 2°C

[Больше]
Ветер 320º variable 300º to 360º 4kt
Видимость >10km
Погода -
Облачность Clouds and Visibility OK
Давление 1014
Изменить No Significant change. Runway 04: Clear and dry, , friction coefficient 0.70.
Необработанный UACC 241400Z 32002MPS 300V360 CAVOK 18/02 Q1014 R04/0///70 NOSIG RMK QFE729/0972

TAF для 51.02°С 71.47°В (UACC)

From till


Maximum Temperature 20ºC on . Minimum Temperature 10ºC on .
From till Wind 300º 6kt. Visibility 10km or more. Scattered Clouds 4000ft. Broken Clouds 10000ft.
Becoming from till Wind 330º 12kt. Visibility 10km or more. Scattered Clouds 4000ft. Broken Clouds 10000ft.
Temporarly from till Light Thunderstorm Rain . Broken Clouds 2000ft.
Becoming from till Wind 150º 6kt. Visibility 10km or more. Scattered Clouds 4000ft. Broken Clouds 10000ft.

Необработанный: TAF UACC 242300Z 2500/2524 30003MPS 9999 SCT040CB BKN100 TX20/2509Z TN10/2523Z BECMG 2504/2506 33006MPS TEMPO 2506/2512 -TSRA BKN020CB BECMG 2518/2520 15003MPS

Текущие спутниковые изображения и снимки дождя для 51.02°С 71.47°В

Указатель местности находится на 51.02°С 71.47°В. [Больше]

Спутниковое изображение в реальном времени сочетает в себе видимый свет в дневное время с инфракрасным излучением в ночное время. Ночью изображение получается не темным, так как инфракрасное излучение может обнаружить разницу температур. К сожалению, низкие облака и туман трудно отличить от температуры у поверхности земли и поэтому могут быть почти незаметны ночью. Спутниковые снимки Meteosat для Европы обновляются каждые 5 минут в режиме реального времени.Снимки GOES-16/GOES-17 (Северная и Южная Америка) и Химавари (Азия) обновляются каждые 10 минут.

Копирайт 2021 EUMETSAT / meteoblue. / Копирайт 2021 meteoblue

Радарный и сверхкраткосрочный прогноз осадков для 51.02°С 71.47°В

Индикатор местности находится на 51.02°С 71.47°В. Анимация показывает радар осадков за последний час, а также прогноз погоды для1h. Умеренная морось или легкий снег могут быть незаметны для радара. Интенсивность осадковмаркированна цветной кодировкой, начиная со светло-синего и заканчивая темно-пурпурным.